sensor_id;sensor_type;location;lat;lon;timestamp;P1;durP1;ratioP1;P2;durP2;ratioP2
5279;SDS011;2663;53.588;10.010;2023-10-31T00:00:16;5.80;;;4.27;;
5279;SDS011;2663;53.588;10.010;2023-10-31T00:02:43;9.93;;;4.80;;
5279;SDS011;2663;53.588;10.010;2023-10-31T00:05:10;6.13;;;4.60;;
5279;SDS011;2663;53.588;10.010;2023-10-31T00:07:37;6.03;;;5.13;;
5279;SDS011;2663;53.588;10.010;2023-10-31T00:10:04;6.60;;;4.33;;
5279;SDS011;2663;53.588;10.010;2023-10-31T00:12:30;6.40;;;5.17;;
5279;SDS011;2663;53.588;10.010;2023-10-31T00:14:58;7.20;;;5.37;;
5279;SDS011;2663;53.588;10.010;2023-10-31T00:17:25;8.40;;;5.50;;
5279;SDS011;2663;53.588;10.010;2023-10-31T00:19:52;13.07;;;4.43;;
5279;SDS011;2663;53.588;10.010;2023-10-31T00:22:18;10.83;;;5.20;;
5279;SDS011;2663;53.588;10.010;2023-10-31T00:24:45;7.40;;;4.50;;
5279;SDS011;2663;53.588;10.010;2023-10-31T00:27:12;50.13;;;24.97;;
5279;SDS011;2663;53.588;10.010;2023-10-31T00:29:40;14.50;;;8.20;;
5279;SDS011;2663;53.588;10.010;2023-10-31T00:32:07;14.30;;;6.00;;
5279;SDS011;2663;53.588;10.010;2023-10-31T00:34:34;52.00;;;25.77;;
5279;SDS011;2663;53.588;10.010;2023-10-31T00:37:00;20.60;;;7.77;;
5279;SDS011;2663;53.588;10.010;2023-10-31T00:39:27;14.60;;;5.27;;
5279;SDS011;2663;53.588;10.010;2023-10-31T00:41:54;9.27;;;5.87;;
5279;SDS011;2663;53.588;10.010;2023-10-31T00:44:20;10.70;;;5.40;;
5279;SDS011;2663;53.588;10.010;2023-10-31T00:46:47;14.13;;;5.80;;
5279;SDS011;2663;53.588;10.010;2023-10-31T00:49:14;5.90;;;4.63;;
5279;SDS011;2663;53.588;10.010;2023-10-31T00:51:41;10.80;;;5.10;;
5279;SDS011;2663;53.588;10.010;2023-10-31T00:54:07;8.70;;;5.63;;
5279;SDS011;2663;53.588;10.010;2023-10-31T00:56:34;10.30;;;4.67;;
5279;SDS011;2663;53.588;10.010;2023-10-31T00:59:01;8.30;;;4.53;;
5279;SDS011;2663;53.588;10.010;2023-10-31T01:01:28;5.73;;;4.80;;
5279;SDS011;2663;53.588;10.010;2023-10-31T01:03:55;8.13;;;5.27;;
5279;SDS011;2663;53.588;10.010;2023-10-31T01:06:21;10.30;;;5.00;;
5279;SDS011;2663;53.588;10.010;2023-10-31T01:08:48;14.00;;;5.70;;
5279;SDS011;2663;53.588;10.010;2023-10-31T01:11:15;11.17;;;5.60;;
5279;SDS011;2663;53.588;10.010;2023-10-31T01:13:41;10.10;;;5.87;;
5279;SDS011;2663;53.588;10.010;2023-10-31T01:16:08;12.07;;;6.30;;
5279;SDS011;2663;53.588;10.010;2023-10-31T01:18:35;7.10;;;5.77;;
5279;SDS011;2663;53.588;10.010;2023-10-31T01:21:02;9.23;;;7.00;;
5279;SDS011;2663;53.588;10.010;2023-10-31T01:23:29;19.70;;;7.20;;
5279;SDS011;2663;53.588;10.010;2023-10-31T01:25:55;10.67;;;7.83;;
5279;SDS011;2663;53.588;10.010;2023-10-31T01:28:22;12.10;;;7.43;;
5279;SDS011;2663;53.588;10.010;2023-10-31T01:30:49;14.40;;;7.17;;
5279;SDS011;2663;53.588;10.010;2023-10-31T01:33:15;20.27;;;7.80;;
5279;SDS011;2663;53.588;10.010;2023-10-31T01:35:42;16.20;;;8.10;;
5279;SDS011;2663;53.588;10.010;2023-10-31T01:38:09;14.93;;;8.93;;
5279;SDS011;2663;53.588;10.010;2023-10-31T01:40:36;20.17;;;7.90;;
5279;SDS011;2663;53.588;10.010;2023-10-31T01:43:03;11.60;;;8.73;;
5279;SDS011;2663;53.588;10.010;2023-10-31T01:45:30;14.13;;;8.37;;
5279;SDS011;2663;53.588;10.010;2023-10-31T01:47:56;23.90;;;8.00;;
5279;SDS011;2663;53.588;10.010;2023-10-31T01:50:24;14.40;;;9.57;;
5279;SDS011;2663;53.588;10.010;2023-10-31T01:52:51;11.20;;;8.30;;
5279;SDS011;2663;53.588;10.010;2023-10-31T01:55:18;12.10;;;8.60;;
5279;SDS011;2663;53.588;10.010;2023-10-31T01:57:45;18.60;;;8.90;;
5279;SDS011;2663;53.588;10.010;2023-10-31T02:00:14;10.63;;;8.87;;
5279;SDS011;2663;53.588;10.010;2023-10-31T02:02:42;13.17;;;8.60;;
5279;SDS011;2663;53.588;10.010;2023-10-31T02:05:09;14.63;;;8.90;;
5279;SDS011;2663;53.588;10.010;2023-10-31T02:07:36;15.10;;;9.33;;
5279;SDS011;2663;53.588;10.010;2023-10-31T02:10:03;11.60;;;9.40;;
5279;SDS011;2663;53.588;10.010;2023-10-31T02:12:31;12.93;;;9.43;;
5279;SDS011;2663;53.588;10.010;2023-10-31T02:15:01;24.83;;;8.80;;
5279;SDS011;2663;53.588;10.010;2023-10-31T02:17:28;17.73;;;10.60;;
5279;SDS011;2663;53.588;10.010;2023-10-31T02:19:55;15.47;;;8.73;;
5279;SDS011;2663;53.588;10.010;2023-10-31T02:22:22;16.20;;;9.30;;
5279;SDS011;2663;53.588;10.010;2023-10-31T02:24:49;14.23;;;9.20;;
5279;SDS011;2663;53.588;10.010;2023-10-31T02:27:16;10.00;;;8.90;;
5279;SDS011;2663;53.588;10.010;2023-10-31T02:29:42;10.50;;;8.70;;
5279;SDS011;2663;53.588;10.010;2023-10-31T02:32:09;15.70;;;8.27;;
5279;SDS011;2663;53.588;10.010;2023-10-31T02:34:36;11.70;;;8.73;;
5279;SDS011;2663;53.588;10.010;2023-10-31T02:37:03;12.73;;;8.80;;
5279;SDS011;2663;53.588;10.010;2023-10-31T02:39:31;12.93;;;9.03;;
5279;SDS011;2663;53.588;10.010;2023-10-31T02:41:59;12.83;;;8.33;;
5279;SDS011;2663;53.588;10.010;2023-10-31T02:44:26;13.63;;;8.60;;
5279;SDS011;2663;53.588;10.010;2023-10-31T02:46:52;15.40;;;9.00;;
5279;SDS011;2663;53.588;10.010;2023-10-31T02:49:19;13.10;;;8.00;;
5279;SDS011;2663;53.588;10.010;2023-10-31T02:51:46;14.23;;;8.37;;
5279;SDS011;2663;53.588;10.010;2023-10-31T02:54:12;12.10;;;8.53;;
5279;SDS011;2663;53.588;10.010;2023-10-31T02:56:39;11.17;;;8.37;;
5279;SDS011;2663;53.588;10.010;2023-10-31T02:59:06;13.03;;;8.87;;
5279;SDS011;2663;53.588;10.010;2023-10-31T03:01:33;9.53;;;8.50;;
5279;SDS011;2663;53.588;10.010;2023-10-31T03:04:01;11.90;;;8.07;;
5279;SDS011;2663;53.588;10.010;2023-10-31T03:06:28;11.57;;;9.20;;
5279;SDS011;2663;53.588;10.010;2023-10-31T03:08:54;16.17;;;9.70;;
5279;SDS011;2663;53.588;10.010;2023-10-31T03:11:22;16.93;;;8.23;;
5279;SDS011;2663;53.588;10.010;2023-10-31T03:13:50;11.53;;;8.73;;
5279;SDS011;2663;53.588;10.010;2023-10-31T03:16:17;9.77;;;8.60;;
5279;SDS011;2663;53.588;10.010;2023-10-31T03:18:43;11.93;;;9.53;;
5279;SDS011;2663;53.588;10.010;2023-10-31T03:21:10;12.80;;;9.30;;
5279;SDS011;2663;53.588;10.010;2023-10-31T03:23:37;12.43;;;8.90;;
5279;SDS011;2663;53.588;10.010;2023-10-31T03:26:03;12.30;;;9.63;;
5279;SDS011;2663;53.588;10.010;2023-10-31T03:28:30;16.00;;;9.80;;
5279;SDS011;2663;53.588;10.010;2023-10-31T03:30:57;11.23;;;8.53;;
5279;SDS011;2663;53.588;10.010;2023-10-31T03:33:23;17.20;;;10.07;;
5279;SDS011;2663;53.588;10.010;2023-10-31T03:35:50;13.03;;;8.87;;
5279;SDS011;2663;53.588;10.010;2023-10-31T03:38:17;13.70;;;8.33;;
5279;SDS011;2663;53.588;10.010;2023-10-31T03:40:43;16.60;;;9.03;;
5279;SDS011;2663;53.588;10.010;2023-10-31T03:43:10;8.03;;;7.17;;
5279;SDS011;2663;53.588;10.010;2023-10-31T03:45:37;11.67;;;9.37;;
5279;SDS011;2663;53.588;10.010;2023-10-31T03:48:04;12.00;;;8.67;;
5279;SDS011;2663;53.588;10.010;2023-10-31T03:50:30;10.80;;;8.77;;
5279;SDS011;2663;53.588;10.010;2023-10-31T03:52:57;18.00;;;8.60;;
5279;SDS011;2663;53.588;10.010;2023-10-31T03:55:24;11.13;;;8.07;;
5279;SDS011;2663;53.588;10.010;2023-10-31T03:57:51;15.20;;;9.37;;
5279;SDS011;2663;53.588;10.010;2023-10-31T04:00:17;10.73;;;8.10;;
5279;SDS011;2663;53.588;10.010;2023-10-31T04:02:44;13.40;;;8.30;;
5279;SDS011;2663;53.588;10.010;2023-10-31T04:05:11;13.27;;;8.13;;
5279;SDS011;2663;53.588;10.010;2023-10-31T04:07:38;10.73;;;7.73;;
5279;SDS011;2663;53.588;10.010;2023-10-31T04:10:05;13.97;;;7.27;;
5279;SDS011;2663;53.588;10.010;2023-10-31T04:12:32;14.20;;;8.10;;
5279;SDS011;2663;53.588;10.010;2023-10-31T04:14:59;9.20;;;7.50;;
5279;SDS011;2663;53.588;10.010;2023-10-31T04:17:26;10.70;;;7.80;;
5279;SDS011;2663;53.588;10.010;2023-10-31T04:19:53;10.73;;;7.40;;
5279;SDS011;2663;53.588;10.010;2023-10-31T04:22:20;9.10;;;6.80;;
5279;SDS011;2663;53.588;10.010;2023-10-31T04:24:47;11.23;;;7.23;;
5279;SDS011;2663;53.588;10.010;2023-10-31T04:27:13;11.87;;;8.07;;
5279;SDS011;2663;53.588;10.010;2023-10-31T04:29:40;12.17;;;6.67;;
5279;SDS011;2663;53.588;10.010;2023-10-31T04:32:07;8.30;;;6.60;;
5279;SDS011;2663;53.588;10.010;2023-10-31T04:34:33;11.97;;;6.77;;
5279;SDS011;2663;53.588;10.010;2023-10-31T04:37:00;14.67;;;7.73;;
5279;SDS011;2663;53.588;10.010;2023-10-31T04:39:27;7.77;;;6.70;;
5279;SDS011;2663;53.588;10.010;2023-10-31T04:41:54;7.67;;;6.87;;
5279;SDS011;2663;53.588;10.010;2023-10-31T04:44:20;8.37;;;6.40;;
5279;SDS011;2663;53.588;10.010;2023-10-31T04:46:47;11.43;;;6.70;;
5279;SDS011;2663;53.588;10.010;2023-10-31T04:49:14;7.30;;;6.07;;
5279;SDS011;2663;53.588;10.010;2023-10-31T04:51:41;11.93;;;6.97;;
5279;SDS011;2663;53.588;10.010;2023-10-31T04:54:08;11.03;;;6.90;;
5279;SDS011;2663;53.588;10.010;2023-10-31T04:56:35;8.67;;;6.70;;
5279;SDS011;2663;53.588;10.010;2023-10-31T04:59:02;7.93;;;5.63;;
5279;SDS011;2663;53.588;10.010;2023-10-31T05:01:29;9.10;;;6.77;;
5279;SDS011;2663;53.588;10.010;2023-10-31T05:03:56;11.63;;;6.90;;
5279;SDS011;2663;53.588;10.010;2023-10-31T05:06:36;9.70;;;6.90;;
5279;SDS011;2663;53.588;10.010;2023-10-31T05:09:03;7.00;;;5.97;;
5279;SDS011;2663;53.588;10.010;2023-10-31T05:11:30;10.53;;;5.90;;
5279;SDS011;2663;53.588;10.010;2023-10-31T05:13:57;7.00;;;5.90;;
5279;SDS011;2663;53.588;10.010;2023-10-31T05:16:23;7.30;;;6.17;;
5279;SDS011;2663;53.588;10.010;2023-10-31T05:18:50;11.77;;;6.97;;
5279;SDS011;2663;53.588;10.010;2023-10-31T05:21:20;11.27;;;7.40;;
5279;SDS011;2663;53.588;10.010;2023-10-31T05:23:47;9.20;;;7.60;;
5279;SDS011;2663;53.588;10.010;2023-10-31T05:26:13;10.93;;;8.00;;
5279;SDS011;2663;53.588;10.010;2023-10-31T05:28:40;7.63;;;6.47;;
5279;SDS011;2663;53.588;10.010;2023-10-31T05:31:07;11.10;;;7.77;;
5279;SDS011;2663;53.588;10.010;2023-10-31T05:33:33;9.67;;;7.73;;
5279;SDS011;2663;53.588;10.010;2023-10-31T05:36:00;19.43;;;7.83;;
5279;SDS011;2663;53.588;10.010;2023-10-31T05:38:28;13.83;;;8.17;;
5279;SDS011;2663;53.588;10.010;2023-10-31T05:40:55;11.57;;;8.00;;
5279;SDS011;2663;53.588;10.010;2023-10-31T05:43:21;12.17;;;8.20;;
5279;SDS011;2663;53.588;10.010;2023-10-31T05:45:48;10.10;;;7.83;;
5279;SDS011;2663;53.588;10.010;2023-10-31T05:48:15;9.90;;;8.50;;
5279;SDS011;2663;53.588;10.010;2023-10-31T05:50:42;14.53;;;8.93;;
5279;SDS011;2663;53.588;10.010;2023-10-31T05:53:09;14.10;;;9.20;;
5279;SDS011;2663;53.588;10.010;2023-10-31T05:55:38;15.37;;;9.20;;
5279;SDS011;2663;53.588;10.010;2023-10-31T05:58:06;14.13;;;10.60;;
5279;SDS011;2663;53.588;10.010;2023-10-31T06:00:32;11.73;;;9.27;;
5279;SDS011;2663;53.588;10.010;2023-10-31T06:02:59;16.20;;;10.17;;
5279;SDS011;2663;53.588;10.010;2023-10-31T06:05:26;19.00;;;10.57;;
5279;SDS011;2663;53.588;10.010;2023-10-31T06:07:53;14.70;;;10.93;;
5279;SDS011;2663;53.588;10.010;2023-10-31T06:10:19;13.50;;;10.20;;
5279;SDS011;2663;53.588;10.010;2023-10-31T06:12:47;20.37;;;11.80;;
5279;SDS011;2663;53.588;10.010;2023-10-31T06:15:14;16.57;;;11.77;;
5279;SDS011;2663;53.588;10.010;2023-10-31T06:17:41;16.00;;;11.60;;
5279;SDS011;2663;53.588;10.010;2023-10-31T06:20:08;16.37;;;12.17;;
5279;SDS011;2663;53.588;10.010;2023-10-31T06:22:35;16.77;;;12.60;;
5279;SDS011;2663;53.588;10.010;2023-10-31T06:25:02;18.47;;;12.13;;
5279;SDS011;2663;53.588;10.010;2023-10-31T06:27:29;18.30;;;11.63;;
5279;SDS011;2663;53.588;10.010;2023-10-31T06:29:56;15.97;;;12.30;;
5279;SDS011;2663;53.588;10.010;2023-10-31T06:32:42;15.63;;;12.33;;
5279;SDS011;2663;53.588;10.010;2023-10-31T06:35:09;16.13;;;11.63;;
5279;SDS011;2663;53.588;10.010;2023-10-31T06:37:36;16.30;;;11.13;;
5279;SDS011;2663;53.588;10.010;2023-10-31T06:40:03;16.00;;;11.10;;
5279;SDS011;2663;53.588;10.010;2023-10-31T06:42:30;16.83;;;11.37;;
5279;SDS011;2663;53.588;10.010;2023-10-31T06:44:57;19.60;;;12.90;;
5279;SDS011;2663;53.588;10.010;2023-10-31T06:47:24;13.23;;;11.00;;
5279;SDS011;2663;53.588;10.010;2023-10-31T06:49:51;18.17;;;11.50;;
5279;SDS011;2663;53.588;10.010;2023-10-31T06:52:17;17.33;;;11.53;;
5279;SDS011;2663;53.588;10.010;2023-10-31T06:54:44;17.20;;;12.00;;
5279;SDS011;2663;53.588;10.010;2023-10-31T06:57:11;17.70;;;12.73;;
5279;SDS011;2663;53.588;10.010;2023-10-31T06:59:37;16.00;;;12.30;;
5279;SDS011;2663;53.588;10.010;2023-10-31T07:02:04;15.10;;;12.30;;
5279;SDS011;2663;53.588;10.010;2023-10-31T07:04:31;17.83;;;11.77;;
5279;SDS011;2663;53.588;10.010;2023-10-31T07:06:58;19.20;;;12.40;;
5279;SDS011;2663;53.588;10.010;2023-10-31T07:09:25;15.57;;;11.70;;
5279;SDS011;2663;53.588;10.010;2023-10-31T07:11:52;14.17;;;10.37;;
5279;SDS011;2663;53.588;10.010;2023-10-31T07:14:19;17.23;;;10.20;;
5279;SDS011;2663;53.588;10.010;2023-10-31T07:16:47;7.30;;;6.60;;
5279;SDS011;2663;53.588;10.010;2023-10-31T07:19:15;6.60;;;6.00;;
5279;SDS011;2663;53.588;10.010;2023-10-31T07:21:41;6.30;;;5.70;;
5279;SDS011;2663;53.588;10.010;2023-10-31T07:24:08;7.10;;;6.10;;
5279;SDS011;2663;53.588;10.010;2023-10-31T07:26:35;12.83;;;6.30;;
5279;SDS011;2663;53.588;10.010;2023-10-31T07:29:02;11.77;;;6.97;;
5279;SDS011;2663;53.588;10.010;2023-10-31T07:31:29;9.10;;;7.47;;
5279;SDS011;2663;53.588;10.010;2023-10-31T07:33:56;8.37;;;7.60;;
5279;SDS011;2663;53.588;10.010;2023-10-31T07:36:23;9.00;;;8.07;;
5279;SDS011;2663;53.588;10.010;2023-10-31T07:38:50;8.80;;;7.10;;
5279;SDS011;2663;53.588;10.010;2023-10-31T07:41:16;10.03;;;8.80;;
5279;SDS011;2663;53.588;10.010;2023-10-31T07:43:43;10.87;;;9.13;;
5279;SDS011;2663;53.588;10.010;2023-10-31T07:46:10;15.67;;;10.33;;
5279;SDS011;2663;53.588;10.010;2023-10-31T07:48:36;10.80;;;8.57;;
5279;SDS011;2663;53.588;10.010;2023-10-31T07:51:03;9.53;;;8.30;;
5279;SDS011;2663;53.588;10.010;2023-10-31T07:53:31;7.17;;;4.67;;
5279;SDS011;2663;53.588;10.010;2023-10-31T07:55:57;12.50;;;7.73;;
5279;SDS011;2663;53.588;10.010;2023-10-31T07:58:24;9.47;;;8.47;;
5279;SDS011;2663;53.588;10.010;2023-10-31T08:00:51;9.43;;;6.80;;
5279;SDS011;2663;53.588;10.010;2023-10-31T08:03:17;4.70;;;4.20;;
5279;SDS011;2663;53.588;10.010;2023-10-31T08:05:44;6.17;;;4.47;;
5279;SDS011;2663;53.588;10.010;2023-10-31T08:08:11;5.30;;;2.93;;
5279;SDS011;2663;53.588;10.010;2023-10-31T08:10:38;1.90;;;1.70;;
5279;SDS011;2663;53.588;10.010;2023-10-31T08:13:05;0.80;;;0.80;;
5279;SDS011;2663;53.588;10.010;2023-10-31T08:15:32;1.63;;;1.43;;
5279;SDS011;2663;53.588;10.010;2023-10-31T08:17:59;0.80;;;0.80;;
5279;SDS011;2663;53.588;10.010;2023-10-31T08:20:26;3.20;;;1.00;;
5279;SDS011;2663;53.588;10.010;2023-10-31T08:22:53;3.03;;;0.90;;
5279;SDS011;2663;53.588;10.010;2023-10-31T08:25:19;1.37;;;0.90;;
5279;SDS011;2663;53.588;10.010;2023-10-31T08:27:46;0.60;;;0.60;;
5279;SDS011;2663;53.588;10.010;2023-10-31T08:30:13;1.07;;;0.70;;
5279;SDS011;2663;53.588;10.010;2023-10-31T08:32:40;0.60;;;0.60;;
5279;SDS011;2663;53.588;10.010;2023-10-31T08:35:07;3.90;;;0.80;;
5279;SDS011;2663;53.588;10.010;2023-10-31T08:37:34;1.37;;;0.80;;
5279;SDS011;2663;53.588;10.010;2023-10-31T08:40:01;0.70;;;0.70;;
5279;SDS011;2663;53.588;10.010;2023-10-31T08:42:31;0.93;;;0.57;;
5279;SDS011;2663;53.588;10.010;2023-10-31T08:44:58;3.90;;;0.60;;
5279;SDS011;2663;53.588;10.010;2023-10-31T08:47:24;0.60;;;0.60;;
5279;SDS011;2663;53.588;10.010;2023-10-31T08:49:51;1.20;;;0.50;;
5279;SDS011;2663;53.588;10.010;2023-10-31T08:52:18;3.13;;;0.63;;
5279;SDS011;2663;53.588;10.010;2023-10-31T08:54:45;1.00;;;0.70;;
5279;SDS011;2663;53.588;10.010;2023-10-31T08:57:12;0.70;;;0.70;;
5279;SDS011;2663;53.588;10.010;2023-10-31T08:59:38;0.70;;;0.70;;
5279;SDS011;2663;53.588;10.010;2023-10-31T09:02:05;0.83;;;0.83;;
5279;SDS011;2663;53.588;10.010;2023-10-31T09:04:32;0.70;;;0.50;;
5279;SDS011;2663;53.588;10.010;2023-10-31T09:06:59;1.37;;;0.57;;
5279;SDS011;2663;53.588;10.010;2023-10-31T09:09:25;0.60;;;0.60;;
5279;SDS011;2663;53.588;10.010;2023-10-31T09:11:52;0.53;;;0.53;;
5279;SDS011;2663;53.588;10.010;2023-10-31T09:14:19;0.60;;;0.60;;
5279;SDS011;2663;53.588;10.010;2023-10-31T09:16:46;0.47;;;0.47;;
5279;SDS011;2663;53.588;10.010;2023-10-31T09:19:13;0.50;;;0.50;;
5279;SDS011;2663;53.588;10.010;2023-10-31T09:21:40;2.83;;;0.60;;
5279;SDS011;2663;53.588;10.010;2023-10-31T09:24:07;0.57;;;0.57;;
5279;SDS011;2663;53.588;10.010;2023-10-31T09:26:34;4.10;;;0.70;;
5279;SDS011;2663;53.588;10.010;2023-10-31T09:29:01;1.23;;;0.50;;
5279;SDS011;2663;53.588;10.010;2023-10-31T09:31:28;0.50;;;0.50;;
5279;SDS011;2663;53.588;10.010;2023-10-31T09:33:54;0.43;;;0.43;;
5279;SDS011;2663;53.588;10.010;2023-10-31T09:36:21;1.37;;;0.60;;
5279;SDS011;2663;53.588;10.010;2023-10-31T09:38:48;0.50;;;0.50;;
5279;SDS011;2663;53.588;10.010;2023-10-31T09:41:15;0.43;;;0.43;;
5279;SDS011;2663;53.588;10.010;2023-10-31T09:43:42;1.23;;;1.23;;
5279;SDS011;2663;53.588;10.010;2023-10-31T09:46:09;0.50;;;0.40;;
5279;SDS011;2663;53.588;10.010;2023-10-31T09:48:36;0.40;;;0.40;;
5279;SDS011;2663;53.588;10.010;2023-10-31T09:51:04;0.40;;;0.40;;
5279;SDS011;2663;53.588;10.010;2023-10-31T09:53:32;0.40;;;0.40;;
5279;SDS011;2663;53.588;10.010;2023-10-31T09:56:02;0.40;;;0.40;;
5279;SDS011;2663;53.588;10.010;2023-10-31T09:58:30;0.50;;;0.50;;
5279;SDS011;2663;53.588;10.010;2023-10-31T10:00:57;0.40;;;0.40;;
5279;SDS011;2663;53.588;10.010;2023-10-31T10:03:23;0.73;;;0.50;;
5279;SDS011;2663;53.588;10.010;2023-10-31T10:05:50;0.40;;;0.40;;
5279;SDS011;2663;53.588;10.010;2023-10-31T10:08:17;0.40;;;0.40;;
5279;SDS011;2663;53.588;10.010;2023-10-31T10:10:45;0.47;;;0.47;;
5279;SDS011;2663;53.588;10.010;2023-10-31T10:13:13;0.50;;;0.50;;
5279;SDS011;2663;53.588;10.010;2023-10-31T10:15:43;0.63;;;0.50;;
5279;SDS011;2663;53.588;10.010;2023-10-31T10:18:25;0.47;;;0.47;;
5279;SDS011;2663;53.588;10.010;2023-10-31T10:20:59;0.93;;;0.70;;
5279;SDS011;2663;53.588;10.010;2023-10-31T10:23:28;0.60;;;0.60;;
5279;SDS011;2663;53.588;10.010;2023-10-31T10:25:57;0.60;;;0.60;;
5279;SDS011;2663;53.588;10.010;2023-10-31T10:28:26;3.33;;;0.53;;
5279;SDS011;2663;53.588;10.010;2023-10-31T10:30:53;1.50;;;0.67;;
5279;SDS011;2663;53.588;10.010;2023-10-31T10:33:20;0.60;;;0.60;;
5279;SDS011;2663;53.588;10.010;2023-10-31T10:35:48;0.87;;;0.60;;
5279;SDS011;2663;53.588;10.010;2023-10-31T10:38:17;1.53;;;0.70;;
5279;SDS011;2663;53.588;10.010;2023-10-31T10:40:47;0.83;;;0.83;;
5279;SDS011;2663;53.588;10.010;2023-10-31T10:45:55;1.03;;;0.77;;
5279;SDS011;2663;53.588;10.010;2023-10-31T10:48:24;1.03;;;0.70;;
5279;SDS011;2663;53.588;10.010;2023-10-31T10:50:59;0.90;;;0.80;;
5279;SDS011;2663;53.588;10.010;2023-10-31T10:53:42;1.70;;;0.87;;
5279;SDS011;2663;53.588;10.010;2023-10-31T10:59:23;1.93;;;0.93;;
5279;SDS011;2663;53.588;10.010;2023-10-31T11:02:04;2.20;;;1.10;;
5279;SDS011;2663;53.588;10.010;2023-10-31T11:04:33;2.50;;;0.63;;
5279;SDS011;2663;53.588;10.010;2023-10-31T11:07:00;2.07;;;1.10;;
5279;SDS011;2663;53.588;10.010;2023-10-31T11:09:29;1.83;;;1.00;;
5279;SDS011;2663;53.588;10.010;2023-10-31T11:11:57;1.60;;;0.80;;
5279;SDS011;2663;53.588;10.010;2023-10-31T11:14:25;4.83;;;2.40;;
5279;SDS011;2663;53.588;10.010;2023-10-31T11:16:53;1.67;;;1.10;;
5279;SDS011;2663;53.588;10.010;2023-10-31T11:19:23;3.17;;;1.10;;
5279;SDS011;2663;53.588;10.010;2023-10-31T11:21:54;1.17;;;1.07;;
5279;SDS011;2663;53.588;10.010;2023-10-31T11:24:28;1.53;;;1.30;;
5279;SDS011;2663;53.588;10.010;2023-10-31T11:26:59;1.33;;;1.10;;
5279;SDS011;2663;53.588;10.010;2023-10-31T11:29:27;3.23;;;1.40;;
5279;SDS011;2663;53.588;10.010;2023-10-31T11:31:56;1.00;;;0.90;;
5279;SDS011;2663;53.588;10.010;2023-10-31T11:34:26;1.10;;;1.10;;
5279;SDS011;2663;53.588;10.010;2023-10-31T11:40:14;1.77;;;1.10;;
5279;SDS011;2663;53.588;10.010;2023-10-31T11:42:47;1.60;;;1.00;;
5279;SDS011;2663;53.588;10.010;2023-10-31T11:45:25;1.70;;;1.00;;
5279;SDS011;2663;53.588;10.010;2023-10-31T11:47:58;3.17;;;1.10;;
5279;SDS011;2663;53.588;10.010;2023-10-31T11:50:24;1.13;;;1.03;;
5279;SDS011;2663;53.588;10.010;2023-10-31T11:53:05;2.77;;;1.50;;
5279;SDS011;2663;53.588;10.010;2023-10-31T11:55:34;3.07;;;1.10;;
5279;SDS011;2663;53.588;10.010;2023-10-31T12:00:48;1.63;;;1.53;;
5279;SDS011;2663;53.588;10.010;2023-10-31T12:03:17;3.20;;;2.30;;
5279;SDS011;2663;53.588;10.010;2023-10-31T12:08:29;2.87;;;2.30;;
5279;SDS011;2663;53.588;10.010;2023-10-31T12:11:06;3.90;;;2.07;;
5279;SDS011;2663;53.588;10.010;2023-10-31T12:13:38;3.60;;;1.47;;
5279;SDS011;2663;53.588;10.010;2023-10-31T12:16:07;6.00;;;1.93;;
5279;SDS011;2663;53.588;10.010;2023-10-31T12:18:35;10.33;;;1.60;;
5279;SDS011;2663;53.588;10.010;2023-10-31T12:21:03;1.80;;;1.20;;
5279;SDS011;2663;53.588;10.010;2023-10-31T12:23:30;2.77;;;0.90;;
5279;SDS011;2663;53.588;10.010;2023-10-31T12:25:57;1.37;;;0.70;;
5279;SDS011;2663;53.588;10.010;2023-10-31T12:28:25;0.60;;;0.60;;
5279;SDS011;2663;53.588;10.010;2023-10-31T12:30:54;0.87;;;0.60;;
5279;SDS011;2663;53.588;10.010;2023-10-31T12:33:22;2.83;;;0.80;;
5279;SDS011;2663;53.588;10.010;2023-10-31T12:35:58;1.80;;;0.67;;
5279;SDS011;2663;53.588;10.010;2023-10-31T12:38:25;0.80;;;0.80;;
5279;SDS011;2663;53.588;10.010;2023-10-31T12:40:53;1.43;;;0.80;;
5279;SDS011;2663;53.588;10.010;2023-10-31T12:43:21;0.87;;;0.70;;
5279;SDS011;2663;53.588;10.010;2023-10-31T12:45:48;0.70;;;0.70;;
5279;SDS011;2663;53.588;10.010;2023-10-31T12:48:15;1.30;;;0.70;;
5279;SDS011;2663;53.588;10.010;2023-10-31T12:50:42;0.53;;;0.53;;
5279;SDS011;2663;53.588;10.010;2023-10-31T12:53:09;0.70;;;0.70;;
5279;SDS011;2663;53.588;10.010;2023-10-31T12:55:39;3.47;;;1.00;;
5279;SDS011;2663;53.588;10.010;2023-10-31T12:58:07;4.10;;;0.53;;
5279;SDS011;2663;53.588;10.010;2023-10-31T13:00:36;1.47;;;1.30;;
5279;SDS011;2663;53.588;10.010;2023-10-31T13:03:07;3.63;;;1.10;;
5279;SDS011;2663;53.588;10.010;2023-10-31T13:05:34;5.27;;;0.80;;
5279;SDS011;2663;53.588;10.010;2023-10-31T13:08:10;0.60;;;0.60;;
5279;SDS011;2663;53.588;10.010;2023-10-31T13:10:40;2.63;;;0.70;;
5279;SDS011;2663;53.588;10.010;2023-10-31T13:13:07;0.60;;;0.60;;
5279;SDS011;2663;53.588;10.010;2023-10-31T13:15:34;0.60;;;0.60;;
5279;SDS011;2663;53.588;10.010;2023-10-31T13:18:02;1.73;;;0.70;;
5279;SDS011;2663;53.588;10.010;2023-10-31T13:20:29;0.93;;;0.70;;
5279;SDS011;2663;53.588;10.010;2023-10-31T13:22:58;2.87;;;0.60;;
5279;SDS011;2663;53.588;10.010;2023-10-31T13:25:28;1.57;;;0.90;;
5279;SDS011;2663;53.588;10.010;2023-10-31T13:27:57;0.87;;;0.60;;
5279;SDS011;2663;53.588;10.010;2023-10-31T13:30:24;0.50;;;0.50;;
5279;SDS011;2663;53.588;10.010;2023-10-31T13:32:51;1.63;;;0.90;;
5279;SDS011;2663;53.588;10.010;2023-10-31T13:35:19;0.70;;;0.70;;
5279;SDS011;2663;53.588;10.010;2023-10-31T13:37:46;2.73;;;0.80;;
5279;SDS011;2663;53.588;10.010;2023-10-31T13:40:13;1.60;;;1.17;;
5279;SDS011;2663;53.588;10.010;2023-10-31T13:42:40;1.33;;;0.97;;
5279;SDS011;2663;53.588;10.010;2023-10-31T13:45:07;1.53;;;1.40;;
5279;SDS011;2663;53.588;10.010;2023-10-31T13:47:34;3.17;;;1.20;;
5279;SDS011;2663;53.588;10.010;2023-10-31T13:50:01;1.40;;;1.30;;
5279;SDS011;2663;53.588;10.010;2023-10-31T13:52:28;0.93;;;0.93;;
5279;SDS011;2663;53.588;10.010;2023-10-31T13:54:55;1.47;;;1.00;;
5279;SDS011;2663;53.588;10.010;2023-10-31T13:57:22;0.80;;;0.80;;
5279;SDS011;2663;53.588;10.010;2023-10-31T13:59:49;1.03;;;0.93;;
5279;SDS011;2663;53.588;10.010;2023-10-31T14:02:17;1.33;;;1.00;;
5279;SDS011;2663;53.588;10.010;2023-10-31T14:04:44;0.60;;;0.60;;
5279;SDS011;2663;53.588;10.010;2023-10-31T14:07:13;2.10;;;1.27;;
5279;SDS011;2663;53.588;10.010;2023-10-31T14:09:49;1.00;;;1.00;;
5279;SDS011;2663;53.588;10.010;2023-10-31T14:12:16;1.77;;;1.40;;
5279;SDS011;2663;53.588;10.010;2023-10-31T14:14:42;1.10;;;1.10;;
5279;SDS011;2663;53.588;10.010;2023-10-31T14:17:09;1.13;;;0.80;;
5279;SDS011;2663;53.588;10.010;2023-10-31T14:19:37;3.60;;;1.20;;
5279;SDS011;2663;53.588;10.010;2023-10-31T14:22:04;2.97;;;1.30;;
5279;SDS011;2663;53.588;10.010;2023-10-31T14:24:32;1.43;;;1.03;;
5279;SDS011;2663;53.588;10.010;2023-10-31T14:27:00;0.70;;;0.70;;
5279;SDS011;2663;53.588;10.010;2023-10-31T14:29:27;1.43;;;0.80;;
5279;SDS011;2663;53.588;10.010;2023-10-31T14:31:54;1.47;;;0.70;;
5279;SDS011;2663;53.588;10.010;2023-10-31T14:34:22;2.10;;;0.67;;
5279;SDS011;2663;53.588;10.010;2023-10-31T14:36:48;3.17;;;1.17;;
5279;SDS011;2663;53.588;10.010;2023-10-31T14:39:15;0.90;;;0.90;;
5279;SDS011;2663;53.588;10.010;2023-10-31T14:41:42;1.10;;;1.10;;
5279;SDS011;2663;53.588;10.010;2023-10-31T14:44:09;2.10;;;1.10;;
5279;SDS011;2663;53.588;10.010;2023-10-31T14:46:36;3.60;;;1.20;;
5279;SDS011;2663;53.588;10.010;2023-10-31T14:49:02;1.03;;;0.87;;
5279;SDS011;2663;53.588;10.010;2023-10-31T14:51:29;0.67;;;0.60;;
5279;SDS011;2663;53.588;10.010;2023-10-31T14:53:56;2.00;;;1.00;;
5279;SDS011;2663;53.588;10.010;2023-10-31T14:56:24;4.13;;;1.50;;
5279;SDS011;2663;53.588;10.010;2023-10-31T14:58:52;13.87;;;1.17;;
5279;SDS011;2663;53.588;10.010;2023-10-31T15:01:19;1.47;;;1.37;;
5279;SDS011;2663;53.588;10.010;2023-10-31T15:03:46;3.70;;;1.57;;
5279;SDS011;2663;53.588;10.010;2023-10-31T15:06:13;1.73;;;1.60;;
5279;SDS011;2663;53.588;10.010;2023-10-31T15:08:41;1.93;;;1.70;;
5279;SDS011;2663;53.588;10.010;2023-10-31T15:11:08;1.60;;;1.20;;